Seattle, Washington
Current Conditions -  °F | °C
As of 3:53 AM on Sunday 21 Dec 2014 (Local Time) from KBFI Reporting Station
Few Clouds Few Clouds  
Wind Chill: 12°   Ceiling: Unl
Heat Index: 12°   Visibility: 10mi
Dew Point:   Wind: 9mph
Humidity: 75%   Direction: 220°SW
Pressure: 29.73"   Gusts: NA
Location:  47.6°N, 122.32°W
Report Text: KBFI 211153Z 22008KT 180V240 10SM FEW012 12/08 A2973 RMK AO2 SLP065 60000 70048 T01220078 10144 20122 51044
Loading
Personal Weather Stations






























Interactive Weather Map New forecast layout! Learn more

10-Day Weather Forecast

Advertisements
Track Severe Weather on mobile